sensor_id;sensor_type;location;lat;lon;timestamp;pressure;altitude;pressure_sealevel;temperature;humidity
67457;BME280;54319;52.038;4.640;2024-02-28T00:02:01;102051.56;;;3.45;100.00
67457;BME280;54319;52.038;4.640;2024-02-28T00:04:28;102050.72;;;3.45;100.00
67457;BME280;54319;52.038;4.640;2024-02-28T00:06:54;102049.72;;;3.46;100.00
67457;BME280;54319;52.038;4.640;2024-02-28T00:09:24;102039.94;;;3.45;100.00
67457;BME280;54319;52.038;4.640;2024-02-28T00:11:50;102021.38;;;3.30;100.00
67457;BME280;54319;52.038;4.640;2024-02-28T00:14:18;102037.75;;;3.39;100.00
67457;BME280;54319;52.038;4.640;2024-02-28T00:16:45;102035.91;;;3.39;100.00
67457;BME280;54319;52.038;4.640;2024-02-28T00:19:14;102037.03;;;3.37;100.00
67457;BME280;54319;52.038;4.640;2024-02-28T00:21:42;102033.22;;;3.39;100.00
67457;BME280;54319;52.038;4.640;2024-02-28T00:24:09;102028.94;;;3.37;100.00
67457;BME280;54319;52.038;4.640;2024-02-28T00:26:39;102033.34;;;3.38;100.00
67457;BME280;54319;52.038;4.640;2024-02-28T00:29:06;102036.69;;;3.20;100.00
67457;BME280;54319;52.038;4.640;2024-02-28T00:31:33;102040.72;;;3.36;100.00
67457;BME280;54319;52.038;4.640;2024-02-28T00:34:00;102032.19;;;3.30;100.00
67457;BME280;54319;52.038;4.640;2024-02-28T00:36:29;102040.53;;;3.27;100.00
67457;BME280;54319;52.038;4.640;2024-02-28T00:38:55;102031.63;;;3.27;100.00
67457;BME280;54319;52.038;4.640;2024-02-28T00:41:22;102028.91;;;3.27;100.00
67457;BME280;54319;52.038;4.640;2024-02-28T00:43:48;102034.75;;;3.32;100.00
67457;BME280;54319;52.038;4.640;2024-02-28T00:46:15;102028.50;;;3.31;100.00
67457;BME280;54319;52.038;4.640;2024-02-28T00:48:42;102008.66;;;3.11;100.00
67457;BME280;54319;52.038;4.640;2024-02-28T00:51:09;102036.13;;;3.26;100.00
67457;BME280;54319;52.038;4.640;2024-02-28T00:53:37;102046.09;;;3.26;100.00
67457;BME280;54319;52.038;4.640;2024-02-28T00:56:04;102039.38;;;3.20;100.00
67457;BME280;54319;52.038;4.640;2024-02-28T00:58:31;102044.88;;;3.18;100.00
67457;BME280;54319;52.038;4.640;2024-02-28T01:00:58;102044.31;;;3.15;100.00
67457;BME280;54319;52.038;4.640;2024-02-28T01:03:24;102046.28;;;3.13;100.00
67457;BME280;54319;52.038;4.640;2024-02-28T01:05:51;102047.69;;;3.07;100.00
67457;BME280;54319;52.038;4.640;2024-02-28T01:08:18;102027.28;;;2.93;100.00
67457;BME280;54319;52.038;4.640;2024-02-28T01:10:46;102048.59;;;2.96;100.00
67457;BME280;54319;52.038;4.640;2024-02-28T01:13:15;102044.34;;;2.94;100.00
67457;BME280;54319;52.038;4.640;2024-02-28T01:15:43;102037.63;;;2.88;100.00
67457;BME280;54319;52.038;4.640;2024-02-28T01:18:09;102039.59;;;2.86;100.00
67457;BME280;54319;52.038;4.640;2024-02-28T01:20:36;102024.75;;;2.70;100.00
67457;BME280;54319;52.038;4.640;2024-02-28T01:23:03;102034.59;;;2.81;100.00
67457;BME280;54319;52.038;4.640;2024-02-28T01:25:31;102039.88;;;2.83;100.00
67457;BME280;54319;52.038;4.640;2024-02-28T01:27:59;102038.16;;;2.82;100.00
67457;BME280;54319;52.038;4.640;2024-02-28T01:30:26;102034.75;;;2.80;100.00
67457;BME280;54319;52.038;4.640;2024-02-28T01:32:53;102035.72;;;2.79;100.00
67457;BME280;54319;52.038;4.640;2024-02-28T01:35:19;102030.59;;;2.75;100.00
67457;BME280;54319;52.038;4.640;2024-02-28T01:37:47;102036.72;;;2.78;100.00
67457;BME280;54319;52.038;4.640;2024-02-28T01:40:14;102031.31;;;2.78;100.00
67457;BME280;54319;52.038;4.640;2024-02-28T01:42:41;102031.31;;;2.78;100.00
67457;BME280;54319;52.038;4.640;2024-02-28T01:45:13;102031.06;;;2.81;100.00
67457;BME280;54319;52.038;4.640;2024-02-28T01:47:40;102041.56;;;2.84;100.00
67457;BME280;54319;52.038;4.640;2024-02-28T01:50:09;102035.91;;;2.87;100.00
67457;BME280;54319;52.038;4.640;2024-02-28T01:52:36;102030.16;;;2.92;100.00
67457;BME280;54319;52.038;4.640;2024-02-28T01:55:05;102027.19;;;2.95;100.00
67457;BME280;54319;52.038;4.640;2024-02-28T01:57:33;102029.94;;;3.04;100.00
67457;BME280;54319;52.038;4.640;2024-02-28T02:00:02;102032.09;;;3.11;100.00
67457;BME280;54319;52.038;4.640;2024-02-28T02:02:35;102026.28;;;3.15;100.00
67457;BME280;54319;52.038;4.640;2024-02-28T02:05:01;102027.88;;;3.18;100.00
67457;BME280;54319;52.038;4.640;2024-02-28T02:07:28;102023.03;;;3.22;100.00
67457;BME280;54319;52.038;4.640;2024-02-28T02:09:56;102023.53;;;3.27;100.00
67457;BME280;54319;52.038;4.640;2024-02-28T02:12:23;102022.53;;;3.28;100.00
67457;BME280;54319;52.038;4.640;2024-02-28T02:14:49;101998.66;;;3.23;100.00
67457;BME280;54319;52.038;4.640;2024-02-28T02:17:16;102023.53;;;3.37;100.00
67457;BME280;54319;52.038;4.640;2024-02-28T02:19:45;102015.06;;;3.41;100.00
67457;BME280;54319;52.038;4.640;2024-02-28T02:22:14;102022.03;;;3.44;100.00
67457;BME280;54319;52.038;4.640;2024-02-28T02:24:42;102012.25;;;3.43;100.00
67457;BME280;54319;52.038;4.640;2024-02-28T02:27:09;102014.94;;;3.43;100.00
67457;BME280;54319;52.038;4.640;2024-02-28T02:29:36;102021.75;;;3.47;100.00
67457;BME280;54319;52.038;4.640;2024-02-28T02:32:03;102018.91;;;3.48;100.00
67457;BME280;54319;52.038;4.640;2024-02-28T02:34:29;102013.78;;;3.45;100.00
67457;BME280;54319;52.038;4.640;2024-02-28T02:36:56;102033.97;;;3.51;100.00
67457;BME280;54319;52.038;4.640;2024-02-28T02:39:23;102033.00;;;3.52;100.00
67457;BME280;54319;52.038;4.640;2024-02-28T02:41:53;102027.16;;;3.57;100.00
67457;BME280;54319;52.038;4.640;2024-02-28T02:44:20;102028.88;;;3.58;100.00
67457;BME280;54319;52.038;4.640;2024-02-28T02:46:46;102024.34;;;3.58;100.00
67457;BME280;54319;52.038;4.640;2024-02-28T02:49:13;102013.28;;;3.61;100.00
67457;BME280;54319;52.038;4.640;2024-02-28T02:51:40;102019.25;;;3.65;100.00
67457;BME280;54319;52.038;4.640;2024-02-28T02:54:08;102021.97;;;3.65;100.00
67457;BME280;54319;52.038;4.640;2024-02-28T02:56:35;101976.19;;;3.44;100.00
67457;BME280;54319;52.038;4.640;2024-02-28T02:59:03;102022.25;;;3.72;100.00
67457;BME280;54319;52.038;4.640;2024-02-28T03:01:30;102011.88;;;3.77;100.00
67457;BME280;54319;52.038;4.640;2024-02-28T03:03:56;102003.63;;;3.69;100.00
67457;BME280;54319;52.038;4.640;2024-02-28T03:06:23;102016.59;;;3.85;100.00
67457;BME280;54319;52.038;4.640;2024-02-28T03:08:50;102014.50;;;3.88;100.00
67457;BME280;54319;52.038;4.640;2024-02-28T03:11:17;102014.91;;;3.94;100.00
67457;BME280;54319;52.038;4.640;2024-02-28T03:13:43;102008.25;;;3.98;100.00
67457;BME280;54319;52.038;4.640;2024-02-28T03:16:12;102010.66;;;4.01;100.00
67457;BME280;54319;52.038;4.640;2024-02-28T03:18:38;102010.25;;;4.05;100.00
67457;BME280;54319;52.038;4.640;2024-02-28T03:21:05;102015.09;;;4.12;100.00
67457;BME280;54319;52.038;4.640;2024-02-28T03:23:32;102018.34;;;4.15;100.00
67457;BME280;54319;52.038;4.640;2024-02-28T03:26:01;102024.19;;;4.20;100.00
67457;BME280;54319;52.038;4.640;2024-02-28T03:28:31;102024.19;;;4.20;100.00
67457;BME280;54319;52.038;4.640;2024-02-28T03:30:58;102016.09;;;4.20;100.00
67457;BME280;54319;52.038;4.640;2024-02-28T03:33:26;102004.13;;;4.23;100.00
67457;BME280;54319;52.038;4.640;2024-02-28T03:35:53;102007.00;;;4.22;100.00
67457;BME280;54319;52.038;4.640;2024-02-28T03:38:20;101997.03;;;4.22;100.00
67457;BME280;54319;52.038;4.640;2024-02-28T03:40:46;101993.22;;;4.25;100.00
67457;BME280;54319;52.038;4.640;2024-02-28T03:43:13;101991.06;;;4.28;100.00
67457;BME280;54319;52.038;4.640;2024-02-28T03:45:40;101984.81;;;4.28;100.00
67457;BME280;54319;52.038;4.640;2024-02-28T03:48:07;101997.16;;;4.30;100.00
67457;BME280;54319;52.038;4.640;2024-02-28T03:50:35;101999.75;;;4.32;100.00
67457;BME280;54319;52.038;4.640;2024-02-28T03:53:03;101999.59;;;4.33;100.00
67457;BME280;54319;52.038;4.640;2024-02-28T03:55:30;101994.34;;;4.32;100.00
67457;BME280;54319;52.038;4.640;2024-02-28T03:57:57;101996.06;;;4.43;100.00
67457;BME280;54319;52.038;4.640;2024-02-28T04:00:23;101998.31;;;4.47;100.00
67457;BME280;54319;52.038;4.640;2024-02-28T04:02:51;102008.13;;;4.48;100.00
67457;BME280;54319;52.038;4.640;2024-02-28T04:05:18;101998.47;;;4.46;100.00
67457;BME280;54319;52.038;4.640;2024-02-28T04:07:46;102000.00;;;4.48;100.00
67457;BME280;54319;52.038;4.640;2024-02-28T04:10:13;102007.13;;;4.49;100.00
67457;BME280;54319;52.038;4.640;2024-02-28T04:12:42;102009.41;;;4.44;100.00
67457;BME280;54319;52.038;4.640;2024-02-28T04:15:13;102006.56;;;4.46;100.00
67457;BME280;54319;52.038;4.640;2024-02-28T04:17:40;102011.97;;;4.46;100.00
67457;BME280;54319;52.038;4.640;2024-02-28T04:20:09;102007.97;;;4.40;100.00
67457;BME280;54319;52.038;4.640;2024-02-28T04:22:35;102009.84;;;4.40;100.00
67457;BME280;54319;52.038;4.640;2024-02-28T04:25:04;102008.97;;;4.39;100.00
67457;BME280;54319;52.038;4.640;2024-02-28T04:27:31;102021.50;;;4.40;100.00
67457;BME280;54319;52.038;4.640;2024-02-28T04:29:57;102023.47;;;4.38;100.00
67457;BME280;54319;52.038;4.640;2024-02-28T04:32:26;102033.28;;;4.39;100.00
67457;BME280;54319;52.038;4.640;2024-02-28T04:34:54;102011.13;;;4.26;100.00
67457;BME280;54319;52.038;4.640;2024-02-28T04:37:21;102040.56;;;4.39;100.00
67457;BME280;54319;52.038;4.640;2024-02-28T04:39:47;102042.97;;;4.42;100.00
67457;BME280;54319;52.038;4.640;2024-02-28T04:42:18;102055.50;;;4.43;100.00
67457;BME280;54319;52.038;4.640;2024-02-28T04:44:44;102046.53;;;4.42;100.00
67457;BME280;54319;52.038;4.640;2024-02-28T04:47:12;102043.81;;;4.42;100.00
67457;BME280;54319;52.038;4.640;2024-02-28T04:49:39;102049.38;;;4.41;100.00
67457;BME280;54319;52.038;4.640;2024-02-28T04:52:06;102055.34;;;4.44;100.00
67457;BME280;54319;52.038;4.640;2024-02-28T04:54:32;102032.47;;;4.39;100.00
67457;BME280;54319;52.038;4.640;2024-02-28T04:56:58;102045.69;;;4.42;100.00
67457;BME280;54319;52.038;4.640;2024-02-28T04:59:26;102049.94;;;4.44;100.00
67457;BME280;54319;52.038;4.640;2024-02-28T05:01:53;102044.25;;;4.47;100.00
67457;BME280;54319;52.038;4.640;2024-02-28T05:04:22;102044.41;;;4.46;100.00
67457;BME280;54319;52.038;4.640;2024-02-28T05:06:49;102040.13;;;4.43;100.00
67457;BME280;54319;52.038;4.640;2024-02-28T05:09:15;102042.13;;;4.41;100.00
67457;BME280;54319;52.038;4.640;2024-02-28T05:11:43;102041.81;;;4.44;100.00
67457;BME280;54319;52.038;4.640;2024-02-28T05:14:10;102038.13;;;4.45;100.00
67457;BME280;54319;52.038;4.640;2024-02-28T05:16:38;102046.94;;;4.47;100.00
67457;BME280;54319;52.038;4.640;2024-02-28T05:19:05;102046.22;;;4.45;100.00
67457;BME280;54319;52.038;4.640;2024-02-28T05:21:38;102047.22;;;4.44;100.00
67457;BME280;54319;52.038;4.640;2024-02-28T05:24:06;102048.38;;;4.52;100.00
67457;BME280;54319;52.038;4.640;2024-02-28T05:26:35;102045.25;;;4.56;100.00
67457;BME280;54319;52.038;4.640;2024-02-28T05:29:02;102053.34;;;4.56;100.00
67457;BME280;54319;52.038;4.640;2024-02-28T05:31:30;102045.25;;;4.56;100.00
67457;BME280;54319;52.038;4.640;2024-02-28T05:34:00;102045.13;;;4.58;100.00
67457;BME280;54319;52.038;4.640;2024-02-28T05:36:27;102044.41;;;4.56;100.00
67457;BME280;54319;52.038;4.640;2024-02-28T05:38:55;102046.25;;;4.65;100.00
67457;BME280;54319;52.038;4.640;2024-02-28T05:41:24;102039.97;;;4.64;100.00
67457;BME280;54319;52.038;4.640;2024-02-28T05:43:51;102039.84;;;4.66;100.00
67457;BME280;54319;52.038;4.640;2024-02-28T05:46:18;102046.94;;;4.67;100.00
67457;BME280;54319;52.038;4.640;2024-02-28T05:48:46;102039.56;;;4.59;100.00
67457;BME280;54319;52.038;4.640;2024-02-28T05:51:14;102041.53;;;4.67;100.00
67457;BME280;54319;52.038;4.640;2024-02-28T05:53:42;102037.56;;;4.71;100.00
67457;BME280;54319;52.038;4.640;2024-02-28T05:56:09;102036.44;;;4.74;100.00
67457;BME280;54319;52.038;4.640;2024-02-28T05:58:40;102035.56;;;4.73;100.00
67457;BME280;54319;52.038;4.640;2024-02-28T06:01:07;102033.28;;;4.69;100.00
67457;BME280;54319;52.038;4.640;2024-02-28T06:03:33;102032.97;;;4.72;100.00
67457;BME280;54319;52.038;4.640;2024-02-28T06:06:00;102037.56;;;4.71;100.00
67457;BME280;54319;52.038;4.640;2024-02-28T06:08:32;102029.03;;;4.66;100.00
67457;BME280;54319;52.038;4.640;2024-02-28T06:10:58;101991.78;;;4.50;100.00
67457;BME280;54319;52.038;4.640;2024-02-28T06:13:26;102046.66;;;4.80;100.00
67457;BME280;54319;52.038;4.640;2024-02-28T06:15:55;102040.38;;;4.80;100.00
67457;BME280;54319;52.038;4.640;2024-02-28T06:18:23;102048.66;;;4.78;100.00
67457;BME280;54319;52.038;4.640;2024-02-28T06:20:52;102052.06;;;4.80;100.00
67457;BME280;54319;52.038;4.640;2024-02-28T06:23:19;102048.50;;;4.80;100.00
67457;BME280;54319;52.038;4.640;2024-02-28T06:25:47;102056.19;;;4.84;100.00
67457;BME280;54319;52.038;4.640;2024-02-28T06:28:14;102056.19;;;4.84;100.00
67457;BME280;54319;52.038;4.640;2024-02-28T06:30:42;102053.63;;;4.83;100.00
67457;BME280;54319;52.038;4.640;2024-02-28T06:33:09;102071.53;;;4.84;100.00
67457;BME280;54319;52.038;4.640;2024-02-28T06:35:36;102067.84;;;4.85;100.00
67457;BME280;54319;52.038;4.640;2024-02-28T06:38:03;102078.53;;;4.86;100.00
67457;BME280;54319;52.038;4.640;2024-02-28T06:40:30;102086.19;;;4.91;100.00
67457;BME280;54319;52.038;4.640;2024-02-28T06:42:58;102089.34;;;4.86;100.00
67457;BME280;54319;52.038;4.640;2024-02-28T06:45:25;102045.81;;;4.60;100.00
67457;BME280;54319;52.038;4.640;2024-02-28T06:47:51;102078.53;;;4.76;100.00
67457;BME280;54319;52.038;4.640;2024-02-28T06:50:18;102091.88;;;4.88;100.00
67457;BME280;54319;52.038;4.640;2024-02-28T06:52:47;102092.03;;;4.86;100.00
67457;BME280;54319;52.038;4.640;2024-02-28T06:55:13;102090.34;;;4.85;100.00
67457;BME280;54319;52.038;4.640;2024-02-28T06:57:41;102097.75;;;4.93;100.00
67457;BME280;54319;52.038;4.640;2024-02-28T07:00:10;102091.16;;;4.86;100.00
67457;BME280;54319;52.038;4.640;2024-02-28T07:02:37;102103.41;;;4.90;100.00
67457;BME280;54319;52.038;4.640;2024-02-28T07:05:04;102095.59;;;4.97;100.00
67457;BME280;54319;52.038;4.640;2024-02-28T07:07:32;102099.00;;;4.99;100.00
67457;BME280;54319;52.038;4.640;2024-02-28T07:09:58;102105.81;;;5.03;100.00
67457;BME280;54319;52.038;4.640;2024-02-28T07:12:25;102094.56;;;5.07;100.00
67457;BME280;54319;52.038;4.640;2024-02-28T07:14:52;102099.97;;;5.07;100.00
67457;BME280;54319;52.038;4.640;2024-02-28T07:17:24;102092.00;;;5.06;100.00
67457;BME280;54319;52.038;4.640;2024-02-28T07:19:51;102082.63;;;5.00;100.00
67457;BME280;54319;52.038;4.640;2024-02-28T07:22:18;102101.97;;;5.05;100.00
67457;BME280;54319;52.038;4.640;2024-02-28T07:24:44;102103.22;;;5.21;100.00
67457;BME280;54319;52.038;4.640;2024-02-28T07:27:11;102107.78;;;5.20;100.00
67457;BME280;54319;52.038;4.640;2024-02-28T07:29:38;102113.75;;;5.24;100.00
67457;BME280;54319;52.038;4.640;2024-02-28T07:32:04;102118.16;;;5.25;100.00
67457;BME280;54319;52.038;4.640;2024-02-28T07:34:36;102112.75;;;5.35;100.00
67457;BME280;54319;52.038;4.640;2024-02-28T07:37:03;102104.34;;;5.28;100.00
67457;BME280;54319;52.038;4.640;2024-02-28T07:39:30;102100.38;;;5.32;100.00
67457;BME280;54319;52.038;4.640;2024-02-28T07:41:56;102116.31;;;5.35;100.00
67457;BME280;54319;52.038;4.640;2024-02-28T07:44:23;102113.19;;;5.30;100.00
67457;BME280;54319;52.038;4.640;2024-02-28T07:46:50;102120.31;;;5.31;100.00
67457;BME280;54319;52.038;4.640;2024-02-28T07:49:16;102121.16;;;5.32;100.00
67457;BME280;54319;52.038;4.640;2024-02-28T07:51:44;102122.56;;;5.36;100.00
67457;BME280;54319;52.038;4.640;2024-02-28T07:54:11;102127.38;;;5.42;100.00
67457;BME280;54319;52.038;4.640;2024-02-28T07:56:38;102132.97;;;5.41;100.00
67457;BME280;54319;52.038;4.640;2024-02-28T07:59:05;102141.19;;;5.49;100.00
67457;BME280;54319;52.038;4.640;2024-02-28T08:01:32;102139.78;;;5.55;100.00
67457;BME280;54319;52.038;4.640;2024-02-28T08:03:59;102140.59;;;5.55;100.00
67457;BME280;54319;52.038;4.640;2024-02-28T08:06:27;102137.91;;;5.55;100.00
67457;BME280;54319;52.038;4.640;2024-02-28T08:08:55;102138.16;;;5.62;100.00
67457;BME280;54319;52.038;4.640;2024-02-28T08:11:24;102146.13;;;5.63;100.00
67457;BME280;54319;52.038;4.640;2024-02-28T08:13:51;102144.13;;;5.65;100.00
67457;BME280;54319;52.038;4.640;2024-02-28T08:16:18;102147.38;;;5.79;100.00
67457;BME280;54319;52.038;4.640;2024-02-28T08:18:44;102151.50;;;5.83;100.00
67457;BME280;54319;52.038;4.640;2024-02-28T08:21:11;102152.34;;;5.84;100.00
67457;BME280;54319;52.038;4.640;2024-02-28T08:23:38;102156.63;;;5.76;100.00
67457;BME280;54319;52.038;4.640;2024-02-28T08:26:06;102159.63;;;5.83;100.00
67457;BME280;54319;52.038;4.640;2024-02-28T08:28:32;102167.75;;;5.83;100.00
67457;BME280;54319;52.038;4.640;2024-02-28T08:30:59;102163.88;;;5.86;100.00
67457;BME280;54319;52.038;4.640;2024-02-28T08:33:26;102173.69;;;5.87;100.00
67457;BME280;54319;52.038;4.640;2024-02-28T08:35:52;102179.97;;;5.87;100.00
67457;BME280;54319;52.038;4.640;2024-02-28T08:38:19;102183.00;;;5.84;100.00
67457;BME280;54319;52.038;4.640;2024-02-28T08:40:46;102177.56;;;5.84;100.00
67457;BME280;54319;52.038;4.640;2024-02-28T08:43:14;102178.84;;;5.90;100.00
67457;BME280;54319;52.038;4.640;2024-02-28T08:45:40;102176.97;;;5.90;100.00
67457;BME280;54319;52.038;4.640;2024-02-28T08:48:07;102182.81;;;5.86;100.00
67457;BME280;54319;52.038;4.640;2024-02-28T08:50:34;102177.41;;;5.86;100.00
67457;BME280;54319;52.038;4.640;2024-02-28T08:53:01;102183.97;;;5.93;100.00
67457;BME280;54319;52.038;4.640;2024-02-28T08:55:28;102169.81;;;5.99;100.00
67457;BME280;54319;52.038;4.640;2024-02-28T08:57:55;102157.41;;;5.97;100.00
67457;BME280;54319;52.038;4.640;2024-02-28T09:00:23;102153.00;;;6.05;100.00
67457;BME280;54319;52.038;4.640;2024-02-28T09:02:50;102165.81;;;6.13;100.00
67457;BME280;54319;52.038;4.640;2024-02-28T09:05:16;102161.63;;;6.19;100.00
67457;BME280;54319;52.038;4.640;2024-02-28T09:07:43;102159.03;;;6.27;100.00
67457;BME280;54319;52.038;4.640;2024-02-28T09:10:11;102164.44;;;6.27;100.00
67457;BME280;54319;52.038;4.640;2024-02-28T09:12:38;102170.78;;;6.36;100.00
67457;BME280;54319;52.038;4.640;2024-02-28T09:15:05;102164.69;;;6.34;100.00
67457;BME280;54319;52.038;4.640;2024-02-28T09:17:35;102146.00;;;6.31;100.00
67457;BME280;54319;52.038;4.640;2024-02-28T09:20:02;102166.38;;;6.35;100.00
67457;BME280;54319;52.038;4.640;2024-02-28T09:22:31;102164.22;;;6.39;100.00
67457;BME280;54319;52.038;4.640;2024-02-28T09:24:58;102163.75;;;6.43;100.00
67457;BME280;54319;52.038;4.640;2024-02-28T09:27:25;102166.06;;;6.38;100.00
67457;BME280;54319;52.038;4.640;2024-02-28T09:29:54;102167.47;;;6.42;100.00
67457;BME280;54319;52.038;4.640;2024-02-28T09:32:20;102166.66;;;6.60;100.00
67457;BME280;54319;52.038;4.640;2024-02-28T09:34:50;102176.97;;;6.74;100.00
67457;BME280;54319;52.038;4.640;2024-02-28T09:37:19;102183.19;;;6.85;100.00
67457;BME280;54319;52.038;4.640;2024-02-28T09:39:48;102173.50;;;7.00;100.00
67457;BME280;54319;52.038;4.640;2024-02-28T09:42:15;102176.06;;;7.20;100.00
67457;BME280;54319;52.038;4.640;2024-02-28T09:44:42;102171.31;;;7.22;100.00
67457;BME280;54319;52.038;4.640;2024-02-28T09:47:10;102166.31;;;7.35;100.00
67457;BME280;54319;52.038;4.640;2024-02-28T09:49:37;102181.72;;;7.53;100.00
67457;BME280;54319;52.038;4.640;2024-02-28T09:52:08;102177.66;;;7.57;100.00
67457;BME280;54319;52.038;4.640;2024-02-28T09:54:35;102168.06;;;7.71;100.00
67457;BME280;54319;52.038;4.640;2024-02-28T09:57:03;102175.97;;;7.82;100.00
67457;BME280;54319;52.038;4.640;2024-02-28T09:59:30;102174.41;;;7.80;100.00
67457;BME280;54319;52.038;4.640;2024-02-28T10:01:57;102171.69;;;7.80;100.00
67457;BME280;54319;52.038;4.640;2024-02-28T10:04:26;102164.44;;;7.89;100.00
67457;BME280;54319;52.038;4.640;2024-02-28T10:06:54;102170.41;;;7.92;100.00
67457;BME280;54319;52.038;4.640;2024-02-28T10:09:22;102163.16;;;8.01;100.00
67457;BME280;54319;52.038;4.640;2024-02-28T10:11:50;102163.31;;;8.00;100.00
67457;BME280;54319;52.038;4.640;2024-02-28T10:14:21;102163.84;;;8.11;100.00
67457;BME280;54319;52.038;4.640;2024-02-28T10:16:47;102161.03;;;8.21;100.00
67457;BME280;54319;52.038;4.640;2024-02-28T10:19:15;102160.03;;;8.31;100.00
67457;BME280;54319;52.038;4.640;2024-02-28T10:21:41;102163.41;;;8.24;100.00
67457;BME280;54319;52.038;4.640;2024-02-28T10:24:07;102158.38;;;8.38;100.00
67457;BME280;54319;52.038;4.640;2024-02-28T10:26:43;102140.34;;;8.37;100.00
67457;BME280;54319;52.038;4.640;2024-02-28T10:29:09;102160.13;;;8.56;100.00
67457;BME280;54319;52.038;4.640;2024-02-28T10:31:37;102156.50;;;8.47;100.00
67457;BME280;54319;52.038;4.640;2024-02-28T10:34:04;102159.91;;;8.49;100.00
67457;BME280;54319;52.038;4.640;2024-02-28T10:36:32;102155.72;;;8.63;100.00
67457;BME280;54319;52.038;4.640;2024-02-28T10:38:59;102151.84;;;8.74;100.00
67457;BME280;54319;52.038;4.640;2024-02-28T10:41:28;102158.84;;;8.85;100.00
67457;BME280;54319;52.038;4.640;2024-02-28T10:43:56;102160.38;;;8.95;100.00
67457;BME280;54319;52.038;4.640;2024-02-28T10:46:23;102146.59;;;8.80;100.00
67457;BME280;54319;52.038;4.640;2024-02-28T10:48:50;102164.97;;;9.03;100.00
67457;BME280;54319;52.038;4.640;2024-02-28T10:51:20;102163.75;;;8.89;100.00
67457;BME280;54319;52.038;4.640;2024-02-28T10:53:50;102165.97;;;9.02;100.00
67457;BME280;54319;52.038;4.640;2024-02-28T10:56:22;102158.16;;;8.91;100.00
67457;BME280;54319;52.038;4.640;2024-02-28T10:58:51;102171.44;;;9.02;100.00
67457;BME280;54319;52.038;4.640;2024-02-28T11:01:19;102166.34;;;9.16;100.00
67457;BME280;54319;52.038;4.640;2024-02-28T11:03:47;102168.03;;;9.08;100.00
67457;BME280;54319;52.038;4.640;2024-02-28T11:06:17;102131.28;;;8.96;100.00
67457;BME280;54319;52.038;4.640;2024-02-28T11:08:48;102165.50;;;9.32;100.00
67457;BME280;54319;52.038;4.640;2024-02-28T11:11:18;102162.25;;;9.28;100.00
67457;BME280;54319;52.038;4.640;2024-02-28T11:13:51;102161.91;;;9.31;100.00
67457;BME280;54319;52.038;4.640;2024-02-28T11:16:26;102131.28;;;9.21;100.00
67457;BME280;54319;52.038;4.640;2024-02-28T11:18:53;102164.63;;;9.23;100.00
67457;BME280;54319;52.038;4.640;2024-02-28T11:21:23;102162.56;;;9.33;100.00
67457;BME280;54319;52.038;4.640;2024-02-28T11:23:51;102158.13;;;9.40;100.00
67457;BME280;54319;52.038;4.640;2024-02-28T11:26:18;102157.81;;;9.52;100.00
67457;BME280;54319;52.038;4.640;2024-02-28T11:28:46;102162.91;;;9.47;100.00
67457;BME280;54319;52.038;4.640;2024-02-28T11:31:12;102152.69;;;9.57;100.00
67457;BME280;54319;52.038;4.640;2024-02-28T11:33:40;102159.19;;;9.31;100.00
67457;BME280;54319;52.038;4.640;2024-02-28T11:36:07;102156.81;;;9.28;100.00
67457;BME280;54319;52.038;4.640;2024-02-28T11:38:34;102142.34;;;9.36;100.00
67457;BME280;54319;52.038;4.640;2024-02-28T11:41:03;102152.00;;;9.47;100.00
67457;BME280;54319;52.038;4.640;2024-02-28T11:43:30;102085.34;;;8.93;100.00
67457;BME280;54319;52.038;4.640;2024-02-28T11:45:57;102118.84;;;9.26;100.00
67457;BME280;54319;52.038;4.640;2024-02-28T11:48:26;102131.59;;;9.34;100.00
67457;BME280;54319;52.038;4.640;2024-02-28T11:50:56;102126.63;;;9.54;100.00
67457;BME280;54319;52.038;4.640;2024-02-28T11:53:24;102103.31;;;9.44;100.00
67457;BME280;54319;52.038;4.640;2024-02-28T11:55:52;102131.69;;;9.66;100.00
67457;BME280;54319;52.038;4.640;2024-02-28T11:58:18;102112.16;;;9.54;100.00
67457;BME280;54319;52.038;4.640;2024-02-28T12:00:47;102135.44;;;9.73;100.00
67457;BME280;54319;52.038;4.640;2024-02-28T12:03:13;102131.88;;;9.64;100.00
67457;BME280;54319;52.038;4.640;2024-02-28T12:05:42;102126.25;;;9.74;100.00
67457;BME280;54319;52.038;4.640;2024-02-28T12:08:11;102132.53;;;9.75;100.00
67457;BME280;54319;52.038;4.640;2024-02-28T12:10:39;102134.56;;;9.81;100.00
67457;BME280;54319;52.038;4.640;2024-02-28T12:13:06;102145.44;;;9.81;100.00
67457;BME280;54319;52.038;4.640;2024-02-28T12:15:34;102139.28;;;9.95;100.00
67457;BME280;54319;52.038;4.640;2024-02-28T12:18:07;102118.56;;;9.78;100.00
67457;BME280;54319;52.038;4.640;2024-02-28T12:20:34;102134.25;;;9.67;100.00
67457;BME280;54319;52.038;4.640;2024-02-28T12:23:02;102135.44;;;9.65;100.00
67457;BME280;54319;52.038;4.640;2024-02-28T12:25:30;102136.81;;;9.61;100.00
67457;BME280;54319;52.038;4.640;2024-02-28T12:27:59;102131.53;;;9.67;100.00
67457;BME280;54319;52.038;4.640;2024-02-28T12:30:28;102127.44;;;9.72;100.00
67457;BME280;54319;52.038;4.640;2024-02-28T12:32:54;102122.34;;;9.68;100.00
67457;BME280;54319;52.038;4.640;2024-02-28T12:35:21;102136.94;;;9.76;100.00
67457;BME280;54319;52.038;4.640;2024-02-28T12:37:48;102140.59;;;9.51;100.00
67457;BME280;54319;52.038;4.640;2024-02-28T12:40:16;102139.28;;;9.31;100.00
67457;BME280;54319;52.038;4.640;2024-02-28T12:42:44;102132.81;;;9.32;100.00
67457;BME280;54319;52.038;4.640;2024-02-28T12:45:11;102136.88;;;9.36;100.00
67457;BME280;54319;52.038;4.640;2024-02-28T12:47:39;102130.41;;;9.37;100.00
67457;BME280;54319;52.038;4.640;2024-02-28T12:50:06;102126.50;;;9.31;100.00
67457;BME280;54319;52.038;4.640;2024-02-28T12:52:34;102132.25;;;9.45;100.00